Time;durP1;ratioP1;P1;durP2;ratioP2;P2;SDS_P1;SDS_P2;PMS_P1;PMS_P2;Temp;Humidity;BMP_temperature;BMP_pressure;BME280_temperature;BME280_humidity;BME280_pressure;Samples;Min_cycle;Max_cycle;Signal;HPM_P1;HPM_P2
2022/01/19 00:00:09;;;;;;;12.45;5.65;;;-2.70;99.90;;;-2.80;89.52;99521.09;173781;28;1207;-73
2022/01/19 00:00:16;;;;;;;12.27;5.68;;;-2.70;99.90;;;-2.92;89.28;99509.22;173810;28;1233;-74
2022/01/19 00:00:23;;;;;;;13.20;5.53;;;-2.70;99.90;;;-2.89;89.17;99510.84;172526;28;1375;-74
2022/01/19 00:00:29;;;;;;;13.00;5.53;;;-2.70;99.90;;;-2.95;88.96;99501.41;172548;28;899;-74
2022/01/19 00:00:35;;;;;;;13.70;5.47;;;-2.70;99.90;;;-2.84;88.99;99530.00;172385;28;1343;-74
2022/01/19 00:00:41;;;;;;;14.80;5.55;;;-2.70;99.90;;;-2.82;89.21;99522.91;173050;28;1183;-74
2022/01/19 00:00:49;;;;;;;14.73;5.47;;;-2.70;99.90;;;-2.84;89.33;99517.69;172427;28;1575;-74
2022/01/19 00:00:55;;;;;;;13.37;5.57;;;-2.70;99.90;;;-2.83;89.33;99521.19;172425;28;1242;-74
2022/01/19 00:01:05;;;;;;;13.17;5.53;;;-2.70;99.90;;;-2.86;89.01;99516.91;172549;28;982;-73
2022/01/19 00:01:11;;;;;;;15.09;5.63;;;-2.70;99.90;;;-2.81;88.90;99520.25;171849;28;1054;-74
2022/01/19 00:01:18;;;;;;;14.76;5.80;;;-2.80;99.90;;;-2.87;89.15;99515.19;171131;28;1120;-74
2022/01/19 00:01:25;;;;;;;15.98;5.82;;;-2.80;99.90;;;-2.80;88.93;99529.88;173027;28;1855;-74
2022/01/19 00:01:32;;;;;;;16.52;5.84;;;-2.70;99.90;;;-2.80;89.09;99529.88;172460;28;1327;-74
2022/01/19 00:01:38;;;;;;;14.60;5.73;;;-2.70;99.90;;;-2.83;89.02;99527.31;172502;28;862;-74
2022/01/19 00:01:44;;;;;;;13.90;5.32;;;-2.70;99.90;;;-2.84;88.72;99514.19;173829;28;1346;-74
2022/01/19 00:01:50;;;;;;;12.32;5.20;;;-2.70;99.90;;;-2.82;88.91;99522.91;173893;28;1349;-74
2022/01/19 00:01:56;;;;;;;11.43;5.20;;;-2.70;99.90;;;-2.90;88.98;99514.44;173285;28;919;-74
2022/01/19 00:02:02;;;;;;;12.02;5.30;;;-2.80;99.90;;;-2.91;89.13;99512.72;173714;28;1351;-74
2022/01/19 00:02:08;;;;;;;13.00;5.30;;;-2.70;99.90;;;-2.91;89.22;99508.31;173272;28;1378;-74
2022/01/19 00:02:14;;;;;;;13.85;5.30;;;-2.80;99.90;;;-2.98;88.96;99495.38;171785;28;1232;-74
2022/01/19 00:02:20;;;;;;;14.77;5.40;;;-2.70;99.90;;;-2.87;89.29;99516.94;171822;28;1144;-74
2022/01/19 00:02:26;;;;;;;15.55;5.43;;;-2.70;99.90;;;-2.92;88.92;99506.56;172502;28;875;-73
2022/01/19 00:02:32;;;;;;;15.30;5.43;;;-2.80;99.90;;;-2.87;89.15;99515.19;172609;28;919;-74
2022/01/19 00:02:38;;;;;;;14.02;5.50;;;-2.70;99.90;;;-2.91;88.71;99504.81;172516;28;939;-74
2022/01/19 00:02:44;;;;;;;13.23;5.50;;;-2.80;99.90;;;-2.86;89.17;99514.25;173908;28;951;-74
2022/01/19 00:02:50;;;;;;;13.70;5.47;;;-2.70;99.90;;;-2.88;89.00;99507.31;173761;28;1258;-74
2022/01/19 00:02:56;;;;;;;13.20;5.60;;;-2.70;99.90;;;-2.92;88.98;99496.03;171849;28;950;-74
2022/01/19 00:03:02;;;;;;;12.95;5.45;;;-2.70;99.90;;;-2.80;89.27;99521.97;172357;28;1265;-74
2022/01/19 00:03:08;;;;;;;14.30;5.47;;;-2.70;99.90;;;-2.83;89.14;99513.28;173274;28;1975;-74
2022/01/19 00:03:15;;;;;;;14.60;5.47;;;-2.70;99.90;;;-2.82;88.97;99518.50;173121;28;1582;-74
2022/01/19 00:03:21;;;;;;;14.80;5.50;;;-2.70;99.90;;;-2.86;89.29;99506.38;173841;28;1381;-74
2022/01/19 00:03:27;;;;;;;14.33;5.30;;;-2.70;99.90;;;-2.79;89.10;99521.03;172592;28;1006;-75
2022/01/19 00:03:33;;;;;;;13.30;5.15;;;-2.70;99.90;;;-2.81;89.21;99512.31;173080;28;1327;-74
2022/01/19 00:03:39;;;;;;;13.18;5.00;;;-2.70;99.90;;;-2.84;88.88;99503.66;171903;28;928;-74
2022/01/19 00:03:45;;;;;;;13.30;4.95;;;-2.70;99.90;;;-2.79;89.06;99514.88;173077;28;1401;-74
2022/01/19 00:03:51;;;;;;;12.00;4.70;;;-2.70;99.90;;;-2.79;89.17;99510.47;173127;28;1204;-74
2022/01/19 00:03:57;;;;;;;12.40;4.78;;;-2.70;99.90;;;-2.86;89.05;99508.13;173038;28;1338;-74
2022/01/19 00:04:03;;;;;;;13.18;4.97;;;-2.70;99.90;;;-2.82;89.45;99512.38;171822;28;1204;-74
2022/01/19 00:04:09;;;;;;;12.33;5.37;;;-2.70;99.90;;;-2.88;88.75;99502.91;172510;28;1374;-74
2022/01/19 00:04:15;;;;;;;12.93;5.45;;;-2.70;99.90;;;-2.94;89.06;99486.44;173101;28;1326;-74
2022/01/19 00:04:21;;;;;;;13.80;5.53;;;-2.70;99.90;;;-2.95;89.06;99490.84;171256;28;999;-73
2022/01/19 00:04:27;;;;;;;12.95;5.22;;;-2.70;99.90;;;-2.96;89.12;99489.16;171764;28;1399;-73
2022/01/19 00:04:33;;;;;;;11.88;5.13;;;-2.70;99.90;;;-2.83;88.80;99505.38;171849;28;1038;-74
2022/01/19 00:04:40;;;;;;;12.67;4.93;;;-2.70;99.90;;;-2.92;88.75;99496.03;172431;28;887;-74
2022/01/19 00:04:46;;;;;;;12.78;5.14;;;-2.70;99.90;;;-2.88;89.04;99502.91;173162;28;1342;-74
2022/01/19 00:04:52;;;;;;;12.55;5.25;;;-2.80;99.90;;;-2.92;89.03;99500.44;172505;28;983;-74
2022/01/19 00:04:58;;;;;;;15.50;5.45;;;-2.70;99.90;;;-2.95;88.87;99488.22;173253;28;1016;-74
2022/01/19 00:05:08;;;;;;;16.27;5.63;;;-2.70;99.90;;;-2.89;89.03;99501.19;173814;28;1350;-74
2022/01/19 00:05:14;;;;;;;15.18;5.75;;;-2.70;99.90;;;-2.91;89.10;99500.41;172463;28;1957;-74
2022/01/19 00:05:20;;;;;;;14.13;5.32;;;-2.80;99.90;;;-2.84;88.79;99512.41;173160;28;1220;-73
2022/01/19 00:05:26;;;;;;;12.32;5.25;;;-2.70;99.90;;;-2.94;88.94;99492.59;172554;28;967;-74
2022/01/19 00:05:31;;;;;;;13.85;5.45;;;-2.70;99.90;;;-2.88;88.99;99505.53;173094;28;1340;-74
2022/01/19 00:05:39;;;;;;;13.38;5.00;;;-2.70;99.90;;;-2.88;88.75;99505.53;173255;28;1249;-74
2022/01/19 00:05:45;;;;;;;14.54;5.04;;;-2.70;99.90;;;-2.88;88.88;99496.78;172297;28;2310;-74
2022/01/19 00:05:51;;;;;;;15.95;5.22;;;-2.70;99.90;;;-2.94;88.70;99483.81;171841;28;1398;-73
2022/01/19 00:05:58;;;;;;;15.68;5.30;;;-2.70;99.90;;;-3.03;88.59;99477.97;171798;28;1142;-73
2022/01/19 00:06:04;;;;;;;14.80;5.45;;;-2.80;99.90;;;-2.86;88.61;99506.38;173092;28;1295;-74
2022/01/19 00:06:11;;;;;;;14.83;5.53;;;-2.70;99.90;;;-2.93;88.82;99491.66;173042;28;1685;-74
2022/01/19 00:06:18;;;;;;;14.43;5.70;;;-2.80;99.90;;;-3.00;88.77;99479.63;171803;28;1451;-74
2022/01/19 00:06:24;;;;;;;15.57;5.72;;;-2.80;99.90;;;-2.87;88.88;99490.59;171899;28;1109;-74
2022/01/19 00:06:31;;;;;;;15.35;5.65;;;-2.70;99.90;;;-2.91;89.19;99491.63;171930;28;987;-74
2022/01/19 00:06:36;;;;;;;15.16;5.68;;;-2.80;99.90;;;-2.89;89.01;99495.91;171669;28;1513;-73
2022/01/19 00:06:42;;;;;;;14.90;5.80;;;-2.80;99.90;;;-3.00;88.42;99476.97;171178;28;980;-74
2022/01/19 00:06:48;;;;;;;13.43;5.60;;;-2.80;99.90;;;-2.82;88.82;99504.47;171879;28;895;-74
2022/01/19 00:06:54;;;;;;;12.10;5.47;;;-2.80;99.90;;;-2.98;88.86;99477.81;172798;28;1611;-74
2022/01/19 00:07:00;;;;;;;13.55;5.60;;;-2.80;99.90;;;-2.82;89.28;99507.97;172468;28;1129;-74
2022/01/19 00:07:06;;;;;;;14.03;5.47;;;-2.80;99.90;;;-2.86;88.91;99494.97;173902;28;812;-74
2022/01/19 00:07:12;;;;;;;15.05;5.22;;;-2.80;99.90;;;-2.83;88.92;99495.69;173798;28;1375;-74
2022/01/19 00:07:18;;;;;;;15.80;5.25;;;-2.80;99.90;;;-2.86;88.82;99494.97;173828;28;820;-74
2022/01/19 00:07:24;;;;;;;17.25;5.40;;;-2.80;99.90;;;-2.91;88.64;99489.84;173197;28;832;-74
2022/01/19 00:07:30;;;;;;;17.85;5.50;;;-2.80;99.90;;;-2.95;88.66;99480.31;172421;28;1215;-74
2022/01/19 00:07:36;;;;;;;16.45;5.40;;;-2.80;99.90;;;-2.97;88.67;99476.03;173120;28;1653;-74
2022/01/19 00:07:42;;;;;;;16.23;5.50;;;-2.80;99.90;;;-2.87;88.80;99498.50;173163;28;1410;-74
2022/01/19 00:07:48;;;;;;;16.57;5.57;;;-2.80;99.90;;;-2.91;88.72;99489.84;173849;28;1263;-74
2022/01/19 00:07:54;;;;;;;14.13;5.18;;;-2.80;99.90;;;-2.96;88.58;99475.97;173126;28;1350;-74
2022/01/19 00:08:00;;;;;;;13.13;5.00;;;-2.80;99.90;;;-3.20;88.67;99445.22;172967;28;1036;-74
2022/01/19 00:08:06;;;;;;;13.18;4.93;;;-2.80;99.90;;;-2.96;88.74;99477.75;173151;28;1362;-74
2022/01/19 00:08:18;;;;;;;11.93;4.77;;;-2.80;99.90;;;-2.95;88.81;99485.59;173893;28;1026;-74
2022/01/19 00:08:26;;;;;;;11.39;4.91;;;-2.80;99.90;;;-2.94;88.70;99483.81;173113;28;1206;-74
2022/01/19 00:08:32;;;;;;;13.13;5.30;;;-2.80;99.90;;;-2.90;88.24;99494.19;173252;28;957;-73
2022/01/19 00:08:39;;;;;;;14.17;5.60;;;-2.80;99.90;;;-2.96;88.65;99486.53;172535;28;906;-73
2022/01/19 00:08:45;;;;;;;14.55;5.32;;;-2.80;99.90;;;-2.95;88.48;99488.22;173746;28;1362;-74
2022/01/19 00:08:52;;;;;;;14.30;5.45;;;-2.80;99.90;;;-2.98;88.62;99483.06;175219;28;1564;-74
2022/01/19 00:08:59;;;;;;;14.06;5.32;;;-2.80;99.90;;;-3.05;88.37;99471.00;175226;28;1341;-74
2022/01/19 00:09:05;;;;;;;11.32;5.12;;;-2.80;99.90;;;-2.92;88.65;99487.25;173074;28;1322;-74
2022/01/19 00:09:11;;;;;;;11.20;5.30;;;-2.80;99.90;;;-2.95;88.66;99485.59;173090;28;1453;-74
2022/01/19 00:09:17;;;;;;;11.68;5.60;;;-2.80;99.90;;;-2.93;88.41;99490.81;173242;28;974;-74
2022/01/19 00:09:24;;;;;;;12.04;5.46;;;-2.80;99.90;;;-2.88;88.54;99496.78;173202;28;1444;-74
2022/01/19 00:09:30;;;;;;;13.58;5.56;;;-2.80;99.90;;;-3.09;88.59;99465.00;173839;28;976;-74
2022/01/19 00:09:36;;;;;;;14.33;5.67;;;-2.80;99.90;;;-2.91;88.60;99489.84;173788;28;1199;-74
2022/01/19 00:09:42;;;;;;;14.50;5.75;;;-2.80;99.90;;;-3.02;88.43;99471.78;173227;28;995;-74
2022/01/19 00:09:48;;;;;;;14.48;5.82;;;-2.80;99.90;;;-2.93;88.63;99483.75;171741;28;1300;-73
2022/01/19 00:09:53;;;;;;;13.70;5.65;;;-2.80;99.90;;;-2.89;88.66;99495.91;173230;28;843;-73
2022/01/19 00:10:04;;;;;;;12.27;5.55;;;-2.80;99.90;;;-2.98;88.79;99477.81;173804;28;1152;-74
2022/01/19 00:10:16;;;;;;;10.70;5.29;;;-2.80;99.90;;;-2.95;88.75;99485.59;172509;28;1140;-74
2022/01/19 00:10:27;;;;;;;10.60;4.91;;;-2.80;99.90;;;-2.93;88.63;99475.00;172465;28;1749;-74
2022/01/19 00:10:34;;;;;;;11.86;5.05;;;-2.80;99.90;;;-2.91;88.51;99489.00;172383;28;3099;-74
2022/01/19 00:10:40;;;;;;;12.62;5.18;;;-2.80;99.90;;;-3.20;88.52;99445.22;173115;28;1735;-74
2022/01/19 00:10:49;;;;;;;12.75;5.43;;;-2.80;99.90;;;-2.87;88.57;99498.50;173129;28;1188;-73
2022/01/19 00:10:56;;;;;;;11.96;5.24;;;-2.80;99.90;;;-2.96;88.51;99473.34;173069;28;1428;-73
2022/01/19 00:11:02;;;;;;;12.72;5.30;;;-2.80;99.90;;;-2.92;88.55;99488.13;173161;28;1686;-74
2022/01/19 00:11:08;;;;;;;12.68;5.20;;;-2.80;99.90;;;-3.00;88.57;99483.13;173801;28;1313;-73
2022/01/19 00:11:14;;;;;;;13.35;5.22;;;-2.80;99.90;;;-2.93;88.59;99489.03;172474;28;931;-75
2022/01/19 00:11:21;;;;;;;13.45;5.30;;;-2.80;99.90;;;-2.91;88.64;99489.84;173159;28;1183;-74
2022/01/19 00:11:27;;;;;;;14.03;5.30;;;-2.80;99.90;;;-3.06;88.94;99470.16;172443;28;1537;-74
2022/01/19 00:11:33;;;;;;;13.65;5.45;;;-2.80;99.90;;;-2.99;88.80;99478.72;172501;28;840;-74
2022/01/19 00:11:39;;;;;;;13.53;5.47;;;-2.80;99.90;;;-3.03;88.54;99477.97;172650;28;887;-73
2022/01/19 00:11:44;;;;;;;11.90;5.38;;;-2.80;99.90;;;-2.98;88.95;99484.84;172454;28;998;-74
2022/01/19 00:11:50;;;;;;;11.55;5.40;;;-2.80;99.90;;;-3.06;88.83;99471.97;173146;28;1467;-74
2022/01/19 00:11:56;;;;;;;12.43;5.50;;;-2.80;99.90;;;-3.02;89.15;99479.69;173250;28;1103;-74
2022/01/19 00:12:03;;;;;;;13.68;5.22;;;-2.80;99.90;;;-3.09;89.03;99467.66;173772;28;1298;-73
2022/01/19 00:12:09;;;;;;;15.46;5.44;;;-2.80;99.90;;;-3.00;89.07;99482.25;172840;28;1497;-74
2022/01/19 00:12:15;;;;;;;16.77;5.50;;;-2.80;99.90;;;-3.01;88.78;99475.28;172999;28;1741;-74
2022/01/19 00:12:21;;;;;;;16.48;5.45;;;-2.80;99.90;;;-3.03;88.87;99477.09;173859;28;1273;-74
2022/01/19 00:12:26;;;;;;;14.97;5.40;;;-2.80;99.90;;;-3.02;88.92;99479.69;172589;28;800;-74
2022/01/19 00:12:32;;;;;;;14.73;5.50;;;-2.80;99.90;;;-3.00;88.69;99482.25;172555;28;986;-74
2022/01/19 00:12:41;;;;;;;14.02;5.32;;;-2.80;99.90;;;-3.02;88.63;99481.47;172401;28;1293;-74
2022/01/19 00:12:47;;;;;;;13.31;5.19;;;-2.80;99.90;;;-3.02;88.63;99476.19;173938;28;1066;-73
2022/01/19 00:12:55;;;;;;;13.48;5.32;;;-2.80;99.90;;;-3.02;88.63;99478.84;173896;28;1011;-74
2022/01/19 00:13:01;;;;;;;13.05;5.45;;;-2.80;99.90;;;-3.03;88.49;99477.97;172409;28;1534;-74
2022/01/19 00:13:07;;;;;;;11.30;5.35;;;-2.80;99.90;;;-3.11;88.96;99468.63;171817;28;1115;-74
2022/01/19 00:13:13;;;;;;;11.20;5.50;;;-2.80;99.90;;;-2.96;88.90;99497.06;171865;28;1643;-74
2022/01/19 00:13:20;;;;;;;11.43;5.30;;;-2.80;99.90;;;-3.00;88.64;99487.53;172216;28;1482;-74
2022/01/19 00:13:26;;;;;;;10.77;4.87;;;-2.90;99.90;;;-3.03;88.92;99477.97;172520;28;911;-73
2022/01/19 00:13:32;;;;;;;10.80;4.90;;;-2.90;99.90;;;-3.13;88.75;99471.31;172442;28;1318;-73
2022/01/19 00:13:38;;;;;;;11.95;4.82;;;-2.90;99.90;;;-3.02;88.43;99495.50;173074;28;1476;-74
2022/01/19 00:13:44;;;;;;;12.13;4.82;;;-2.90;99.90;;;-3.07;88.73;99479.00;172865;28;1457;-74
2022/01/19 00:13:51;;;;;;;11.47;4.87;;;-2.90;99.90;;;-3.02;88.70;99481.47;172605;28;840;-74
2022/01/19 00:13:57;;;;;;;13.17;5.33;;;-2.90;99.90;;;-3.05;88.64;99482.41;171907;28;840;-74
2022/01/19 00:14:03;;;;;;;13.27;5.45;;;-2.90;99.90;;;-3.10;88.98;99468.56;171847;28;926;-74
2022/01/19 00:14:09;;;;;;;12.48;5.53;;;-2.90;99.90;;;-3.10;88.97;99468.56;172492;28;1019;-74
2022/01/19 00:14:15;;;;;;;12.73;5.75;;;-2.90;99.90;;;-3.10;88.90;99465.06;171805;28;824;-73
2022/01/19 00:14:20;;;;;;;12.52;5.80;;;-2.90;99.90;;;-3.03;88.83;99479.75;172353;28;1491;-73
2022/01/19 00:14:27;;;;;;;12.65;5.70;;;-2.90;99.90;;;-2.96;88.76;99494.44;171903;28;900;-73
2022/01/19 00:14:33;;;;;;;13.33;5.60;;;-2.90;99.90;;;-3.02;88.76;99481.47;171874;28;883;-74
2022/01/19 00:14:39;;;;;;;14.23;5.65;;;-2.90;99.90;;;-3.05;88.58;99474.50;172481;28;1231;-74
2022/01/19 00:14:45;;;;;;;14.20;5.30;;;-2.90;99.90;;;-3.07;88.94;99465.81;172511;28;816;-74
2022/01/19 00:14:51;;;;;;;14.73;5.30;;;-2.80;99.90;;;-2.96;88.88;99477.75;173102;28;1286;-74
2022/01/19 00:14:57;;;;;;;12.93;5.13;;;-2.80;99.90;;;-3.02;89.02;99479.69;173217;28;871;-74
2022/01/19 00:15:07;;;;;;;12.15;4.90;;;-2.80;99.90;;;-3.02;88.90;99477.06;173233;28;1145;-74
2022/01/19 00:15:13;;;;;;;10.85;4.84;;;-2.80;99.90;;;-3.00;88.73;99476.97;172467;28;1119;-74
2022/01/19 00:15:19;;;;;;;10.15;4.88;;;-2.80;99.90;;;-3.00;88.73;99479.63;173251;28;1001;-73
2022/01/19 00:15:28;;;;;;;10.98;5.00;;;-2.80;99.90;;;-3.05;88.73;99471.88;173662;28;1463;-73
2022/01/19 00:15:34;;;;;;;11.64;5.09;;;-2.80;99.90;;;-3.06;88.58;99467.53;173119;28;1191;-74
2022/01/19 00:15:40;;;;;;;12.00;5.30;;;-2.80;99.90;;;-3.01;89.05;99478.78;172583;28;1021;-74
2022/01/19 00:15:48;;;;;;;12.23;5.30;;;-2.80;99.90;;;-3.03;88.99;99469.19;172861;28;2695;-74
2022/01/19 00:15:54;;;;;;;12.97;5.45;;;-2.80;99.90;;;-3.13;88.81;99457.28;172298;28;1099;-73
2022/01/19 00:16:00;;;;;;;12.43;5.53;;;-2.80;99.90;;;-3.03;89.19;99471.84;172425;28;1255;-74
2022/01/19 00:16:06;;;;;;;12.18;5.43;;;-2.80;99.90;;;-3.01;88.85;99477.91;172484;28;939;-73
2022/01/19 00:16:12;;;;;;;12.68;5.65;;;-2.80;99.90;;;-3.01;88.81;99477.91;172746;28;1528;-74
2022/01/19 00:16:20;;;;;;;13.50;5.53;;;-2.80;99.90;;;-3.00;88.95;99479.63;172486;28;1303;-74
2022/01/19 00:16:27;;;;;;;14.17;5.47;;;-2.80;99.90;;;-3.08;89.00;99469.38;173870;28;898;-74
2022/01/19 00:16:33;;;;;;;15.88;5.50;;;-2.80;99.90;;;-2.95;88.60;99495.28;172073;28;1536;-73
2022/01/19 00:16:39;;;;;;;16.38;5.45;;;-2.80;99.90;;;-3.07;88.76;99475.50;172477;28;1010;-73
2022/01/19 00:16:45;;;;;;;15.17;5.17;;;-2.80;99.90;;;-3.04;89.09;99480.66;172578;28;1014;-74
2022/01/19 00:16:51;;;;;;;14.73;5.38;;;-2.80;99.90;;;-2.94;89.20;99497.00;172428;28;1211;-74
2022/01/19 00:16:57;;;;;;;14.73;5.35;;;-2.80;99.90;;;-3.00;89.17;99488.38;172451;28;800;-74
2022/01/19 00:17:03;;;;;;;12.55;5.13;;;-2.80;99.90;;;-3.02;89.21;99479.69;172469;28;998;-74
2022/01/19 00:17:09;;;;;;;11.93;5.00;;;-2.80;99.90;;;-3.02;89.12;99477.06;173963;28;1990;-73
2022/01/19 00:17:16;;;;;;;11.98;5.05;;;-2.80;99.90;;;-3.02;89.02;99481.47;174472;28;1487;-74
2022/01/19 00:17:22;;;;;;;11.64;5.14;;;-2.80;99.90;;;-2.96;89.11;99496.19;173166;28;1328;-74
2022/01/19 00:17:28;;;;;;;11.52;5.10;;;-2.80;99.90;;;-3.00;89.17;99487.53;173130;28;1236;-74
2022/01/19 00:17:34;;;;;;;11.33;5.23;;;-2.80;99.90;;;-3.04;88.90;99475.38;173077;28;1324;-74
2022/01/19 00:17:40;;;;;;;11.38;5.30;;;-2.80;99.90;;;-3.07;88.87;99470.22;173758;28;1156;-74
2022/01/19 00:17:46;;;;;;;11.46;5.28;;;-2.80;99.90;;;-3.01;89.09;99486.69;174471;28;1478;-74
2022/01/19 00:17:56;;;;;;;12.75;5.13;;;-2.80;99.90;;;-3.10;88.88;99468.56;173882;28;1046;-74
2022/01/19 00:18:02;;;;;;;13.07;5.03;;;-2.80;99.90;;;-3.02;89.08;99487.59;173249;28;980;-74
2022/01/19 00:18:08;;;;;;;12.96;5.00;;;-2.80;99.90;;;-2.98;88.70;99490.97;172569;28;1057;-74
2022/01/19 00:18:20;;;;;;;13.63;4.88;;;-2.80;99.90;;;-3.11;88.84;99468.63;173779;28;1355;-73
2022/01/19 00:18:27;;;;;;;10.99;4.68;;;-2.80;99.90;;;-3.00;89.00;99482.25;173781;28;1721;-74
2022/01/19 00:18:33;;;;;;;9.85;4.70;;;-2.80;99.90;;;-3.13;88.78;99468.66;171848;28;2080;-74
2022/01/19 00:18:39;;;;;;;9.80;4.60;;;-2.80;99.90;;;-2.97;89.18;99494.47;173141;28;1267;-74
2022/01/19 00:18:45;;;;;;;10.27;4.82;;;-2.80;99.90;;;-2.97;89.08;99490.06;174481;28;1255;-74
2022/01/19 00:18:51;;;;;;;10.77;4.97;;;-2.80;99.90;;;-2.98;89.04;99493.59;172461;28;1527;-74
2022/01/19 00:18:57;;;;;;;11.57;5.17;;;-2.80;99.90;;;-3.02;89.15;99492.00;173261;28;923;-74
2022/01/19 00:19:03;;;;;;;13.00;5.32;;;-2.90;99.90;;;-3.10;89.21;99478.22;173839;28;1214;-73
2022/01/19 00:19:09;;;;;;;13.38;5.45;;;-2.80;99.90;;;-3.17;89.46;99466.19;173225;28;907;-74
2022/01/19 00:19:15;;;;;;;13.07;5.50;;;-2.80;99.90;;;-3.03;89.31;99488.50;172494;28;966;-74
2022/01/19 00:19:21;;;;;;;13.45;5.43;;;-2.80;99.90;;;-3.01;89.13;99494.59;172416;28;1216;-74
2022/01/19 00:19:27;;;;;;;13.75;5.28;;;-2.80;99.90;;;-3.06;89.31;99487.75;172473;28;1259;-74
2022/01/19 00:19:33;;;;;;;14.23;5.20;;;-2.90;99.90;;;-3.02;89.33;99495.50;173794;28;1324;-74
2022/01/19 00:19:38;;;;;;;13.70;5.20;;;-2.80;99.90;;;-3.02;89.60;99489.38;173195;28;1189;-74
2022/01/19 00:19:44;;;;;;;12.85;5.07;;;-2.80;99.90;;;-3.06;89.60;99495.66;172406;28;1682;-74
2022/01/19 00:19:50;;;;;;;12.73;5.10;;;-2.80;99.90;;;-3.04;89.55;99492.06;172455;28;1242;-74
2022/01/19 00:19:56;;;;;;;12.43;5.10;;;-2.80;99.90;;;-3.15;89.68;99473.13;173171;28;1037;-74
2022/01/19 00:20:07;;;;;;;12.13;5.05;;;-2.80;99.90;;;-3.07;89.71;99492.16;173227;28;882;-74
2022/01/19 00:20:13;;;;;;;14.99;5.15;;;-2.80;99.90;;;-3.06;89.54;99490.41;171059;28;1419;-73
2022/01/19 00:20:19;;;;;;;15.05;5.18;;;-2.80;99.90;;;-3.01;89.50;99501.63;172318;28;2126;-73
2022/01/19 00:20:32;;;;;;;15.45;5.30;;;-2.90;99.90;;;-3.14;89.82;99480.13;173786;28;1303;-73
2022/01/19 00:20:38;;;;;;;15.05;5.36;;;-2.90;99.90;;;-3.07;89.50;99496.56;172929;28;1674;-74
2022/01/19 00:20:45;;;;;;;14.02;5.50;;;-2.90;99.90;;;-3.04;89.49;99502.59;172450;28;1540;-73
2022/01/19 00:20:54;;;;;;;13.92;5.60;;;-2.90;99.90;;;-3.08;89.62;99492.22;172479;28;1420;-74
2022/01/19 00:21:01;;;;;;;13.31;5.67;;;-2.90;99.90;;;-3.06;89.51;99501.78;172395;28;1508;-74
2022/01/19 00:21:08;;;;;;;13.45;5.85;;;-2.90;99.90;;;-3.13;89.58;99486.25;173746;28;1485;-73
2022/01/19 00:21:14;;;;;;;12.92;5.78;;;-2.90;99.90;;;-3.08;89.36;99493.06;173272;28;1543;-73
2022/01/19 00:21:20;;;;;;;13.90;5.77;;;-2.90;99.90;;;-3.05;89.60;99492.09;173909;28;883;-74
2022/01/19 00:21:26;;;;;;;14.13;5.63;;;-2.90;99.90;;;-3.07;90.00;99491.31;172430;28;1291;-74
2022/01/19 00:21:33;;;;;;;12.97;5.23;;;-2.80;99.90;;;-3.03;89.58;99500.81;172497;28;1368;-74
2022/01/19 00:21:39;;;;;;;13.13;5.20;;;-2.80;99.90;;;-3.07;89.65;99496.56;172470;28;1432;-74
2022/01/19 00:21:45;;;;;;;14.40;5.20;;;-2.80;99.90;;;-3.22;89.68;99466.38;171635;28;1389;-73
2022/01/19 00:21:51;;;;;;;14.10;5.23;;;-2.80;99.90;;;-3.08;89.67;99493.06;172499;28;1452;-73
2022/01/19 00:21:57;;;;;;;13.93;5.13;;;-2.80;99.90;;;-3.14;89.98;99479.25;171833;28;1392;-73
2022/01/19 00:22:03;;;;;;;14.10;5.10;;;-2.80;99.90;;;-3.01;89.74;99509.53;172451;28;1424;-74
2022/01/19 00:22:09;;;;;;;14.02;4.95;;;-2.80;99.90;;;-3.08;89.65;99492.22;171869;28;1525;-74
2022/01/19 00:22:15;;;;;;;11.55;4.78;;;-2.90;99.90;;;-3.09;90.04;99495.75;172595;28;943;-74
2022/01/19 00:22:21;;;;;;;11.15;4.80;;;-2.80;99.90;;;-3.15;89.94;99477.53;172994;28;1797;-74
2022/01/19 00:22:27;;;;;;;11.85;5.13;;;-2.90;99.90;;;-3.03;89.98;99504.31;173049;28;1390;-74
2022/01/19 00:22:33;;;;;;;12.35;5.10;;;-2.80;99.90;;;-3.06;89.81;99498.31;173598;28;1464;-74
2022/01/19 00:22:39;;;;;;;12.10;5.25;;;-2.80;99.90;;;-3.05;90.05;99495.59;171905;28;1353;-74
2022/01/19 00:22:45;;;;;;;12.45;5.45;;;-2.90;99.90;;;-3.03;90.11;99503.44;172900;28;1796;-74
2022/01/19 00:22:52;;;;;;;13.23;5.47;;;-2.80;99.90;;;-3.06;90.01;99496.50;173209;28;915;-74
2022/01/19 00:22:59;;;;;;;12.70;5.40;;;-2.90;99.90;;;-3.07;90.16;99493.94;172445;28;1385;-74
2022/01/19 00:23:06;;;;;;;12.62;5.54;;;-2.90;99.90;;;-3.06;90.07;99500.94;172425;28;1574;-74
2022/01/19 00:23:15;;;;;;;13.30;5.53;;;-2.80;99.90;;;-3.08;90.29;99492.22;171922;28;887;-74
2022/01/19 00:23:23;;;;;;;12.63;5.80;;;-2.80;99.90;;;-3.13;90.44;99483.63;171757;28;1284;-74
2022/01/19 00:23:29;;;;;;;12.30;5.77;;;-2.80;99.90;;;-3.07;90.12;99491.31;173138;28;1453;-74
2022/01/19 00:23:35;;;;;;;12.48;5.75;;;-2.80;99.90;;;-3.05;90.24;99494.72;172551;28;1089;-74
2022/01/19 00:23:41;;;;;;;12.45;5.70;;;-2.90;99.90;;;-3.03;90.62;99495.56;173149;28;1180;-74
2022/01/19 00:23:47;;;;;;;14.43;5.72;;;-2.90;99.90;;;-3.08;90.28;99490.44;173548;28;1619;-74
2022/01/19 00:23:53;;;;;;;14.03;5.20;;;-2.90;99.90;;;-3.10;89.94;99479.09;172923;28;1600;-74
2022/01/19 00:23:59;;;;;;;14.25;5.10;;;-2.90;99.90;;;-3.03;90.30;99492.91;173786;28;1271;-74
2022/01/19 00:24:06;;;;;;;13.57;4.97;;;-2.90;99.90;;;-3.04;90.09;99499.09;172368;28;1426;-74
2022/01/19 00:24:12;;;;;;;13.44;4.90;;;-2.90;99.90;;;-3.03;90.25;99501.69;173149;28;989;-74
2022/01/19 00:24:17;;;;;;;12.38;4.85;;;-2.90;99.90;;;-2.98;89.93;99505.91;172476;28;840;-74
2022/01/19 00:24:23;;;;;;;13.53;5.10;;;-2.90;99.90;;;-3.07;90.53;99491.31;173118;28;1370;-74
2022/01/19 00:24:29;;;;;;;13.63;5.05;;;-2.90;99.90;;;-3.00;90.08;99505.97;173798;28;1343;-74
2022/01/19 00:24:35;;;;;;;13.13;5.10;;;-2.90;99.90;;;-3.02;90.42;99500.78;173149;28;1147;-74
2022/01/19 00:24:42;;;;;;;12.38;5.05;;;-2.80;99.90;;;-3.07;90.54;99492.16;173734;28;1411;-74
2022/01/19 00:24:48;;;;;;;12.30;5.20;;;-2.80;99.90;;;-3.07;90.01;99493.94;175238;28;1277;-74
2022/01/19 00:24:54;;;;;;;12.38;5.13;;;-2.80;99.90;;;-3.07;90.63;99492.16;173856;28;812;-74
2022/01/19 00:25:00;;;;;;;12.43;5.25;;;-2.80;99.90;;;-3.04;90.08;99493.81;173200;28;1353;-74
2022/01/19 00:25:07;;;;;;;12.43;5.20;;;-2.90;99.90;;;-3.08;90.29;99493.06;173859;28;1170;-74
2022/01/19 00:25:13;;;;;;;12.44;5.08;;;-2.80;99.90;;;-3.02;90.21;99506.03;172436;28;1074;-74
2022/01/19 00:25:20;;;;;;;12.25;4.95;;;-2.80;99.90;;;-3.12;90.01;99488.84;173203;28;1920;-74
2022/01/19 00:25:27;;;;;;;10.90;4.77;;;-2.80;99.90;;;-3.08;90.09;99489.59;172407;28;1452;-74
2022/01/19 00:25:34;;;;;;;10.86;4.72;;;-2.80;99.90;;;-3.12;90.41;99483.56;172479;28;1294;-74
2022/01/19 00:25:40;;;;;;;11.83;4.83;;;-2.80;99.90;;;-3.04;90.35;99493.81;173793;28;1725;-74
2022/01/19 00:25:48;;;;;;;11.10;4.85;;;-2.80;99.90;;;-3.01;90.12;99491.09;172345;28;2223;-74
2022/01/19 00:25:56;;;;;;;10.40;4.80;;;-2.80;99.90;;;-3.04;90.70;99489.41;171810;28;1126;-74
2022/01/19 00:26:02;;;;;;;10.87;4.87;;;-2.80;99.90;;;-3.05;90.41;99485.06;173165;28;887;-73
2022/01/19 00:26:08;;;;;;;10.32;4.82;;;-2.80;99.90;;;-3.06;90.37;99485.97;172498;28;907;-74
2022/01/19 00:26:14;;;;;;;10.23;4.95;;;-2.80;99.90;;;-3.05;90.38;99489.47;173215;28;918;-74
2022/01/19 00:26:20;;;;;;;10.68;5.00;;;-2.80;99.90;;;-3.03;90.36;99492.91;173144;28;1310;-73
2022/01/19 00:26:26;;;;;;;9.63;4.77;;;-2.80;99.90;;;-3.05;90.09;99486.81;173916;28;938;-73
2022/01/19 00:26:32;;;;;;;9.35;4.78;;;-2.80;99.90;;;-2.98;90.41;99495.38;173686;28;1592;-75
2022/01/19 00:26:38;;;;;;;9.03;4.83;;;-2.80;99.90;;;-3.04;90.35;99488.56;173886;28;867;-73
2022/01/19 00:26:46;;;;;;;9.00;4.60;;;-2.80;99.90;;;-3.01;90.17;99497.22;173837;28;1416;-74
2022/01/19 00:26:52;;;;;;;9.45;4.53;;;-2.80;99.90;;;-3.12;90.29;99472.16;173139;28;1658;-74
2022/01/19 00:26:58;;;;;;;9.65;4.60;;;-2.80;99.90;;;-3.06;90.15;99483.31;172501;28;832;-74
2022/01/19 00:27:04;;;;;;;9.83;4.80;;;-2.90;99.90;;;-2.99;90.47;99491.88;171758;28;929;-74
2022/01/19 00:27:11;;;;;;;10.13;4.78;;;-2.80;99.90;;;-2.98;89.97;99493.59;171183;28;877;-74
2022/01/19 00:27:17;;;;;;;9.77;4.87;;;-2.80;99.90;;;-3.02;90.66;99484.09;172517;28;1418;-74
2022/01/19 00:27:23;;;;;;;10.35;4.97;;;-2.80;99.90;;;-3.22;90.13;99447.94;172557;28;998;-73
2022/01/19 00:27:29;;;;;;;10.55;5.00;;;-2.80;99.90;;;-3.02;90.50;99484.09;171793;28;1429;-74
2022/01/19 00:27:35;;;;;;;10.50;4.60;;;-2.80;99.90;;;-2.94;90.79;99497.84;171768;28;892;-74
2022/01/19 00:27:41;;;;;;;10.77;4.77;;;-2.80;99.90;;;-3.03;90.30;99482.38;172552;28;946;-74